This is the latest recevied weather packets stored in our database for station/object EA1RCG-11. If no packets are shown the sender has not sent any weather packets the latest 10 day(s).
| Time | Temp. | Humidity | Pressure | Rain* | Wind** | Luminosity | Snow |
|---|---|---|---|---|---|---|---|
| 1788086259 | 36.11° C | 40% | 982.8 hPa | - | - | - | - |
| 1788084459 | 34.44° C | 41% | 982.6 hPa | - | - | - | - |
| 1788082659 | 27.22° C | 50% | 982.7 hPa | - | - | - | - |
| 1788080859 | 33.89° C | 40% | 982.6 hPa | - | - | - | - |
| 1788079058 | 25° C | 50% | 982.6 hPa | - | - | - | - |
| 1788077258 | 23.89° C | 51% | 982.3 hPa | - | - | - | - |
| 1788075458 | 19.44° C | 57% | 982.5 hPa | - | - | - | - |
| 1788073658 | 19.44° C | 58% | 982.3 hPa | - | - | - | - |
| 1788071858 | 18.89° C | 59% | 982.1 hPa | - | - | - | - |
| 1788070058 | 18.89° C | 59% | 981.9 hPa | - | - | - | - |
| 1788068258 | 18.89° C | 58% | 981.7 hPa | - | - | - | - |
| 1788066458 | 19.44° C | 58% | 981.8 hPa | - | - | - | - |
| 1788064658 | 19.44° C | 57% | 981.8 hPa | - | - | - | - |
| 1788062858 | 19.44° C | 57% | 981.8 hPa | - | - | - | - |
| 1788061057 | 19.44° C | 57% | 982 hPa | - | - | - | - |
| 1788059257 | 20° C | 57% | 982.2 hPa | - | - | - | - |
| 1788057457 | 19.44° C | 57% | 982.2 hPa | - | - | - | - |
| 1788055657 | 20° C | 56% | 982.4 hPa | - | - | - | - |
| 1788053857 | 20° C | 56% | 982.4 hPa | - | - | - | - |
| 1788052057 | 19.44° C | 57% | 982.5 hPa | - | - | - | - |
| 1788050257 | 19.44° C | 56% | 982.6 hPa | - | - | - | - |
| 1788048457 | 19.44° C | 56% | 982.5 hPa | - | - | - | - |
| 1788046657 | 20° C | 56% | 982.7 hPa | - | - | - | - |
| 1788044857 | 20° C | 55% | 983 hPa | - | - | - | - |
| 1788043056 | 20° C | 56% | 983 hPa | - | - | - | - |
* Rain since midnight (hover to see other rain measurements)
** Current wind speed in m/s (hover to see current wind gust speed)